Overview Statistics Trail Chart Weather Telemetry Raw packets
 

This is the latest recevied weather packets stored in our database for station/object DO1BDB-12. If no packets are shown the sender has not sent any weather packets the latest 10 day(s).

<< 304 305 306 307 308 309 310 >>
Time Temp. Humidity Pressure Rain* Wind** Luminosity Snow
1788188648 19.44° C 72% 100.9 hPa - - - -
1788188582 20° C 72% 100.8 hPa - - - -
1788188516 20.56° C 70% 100.8 hPa - - - -
1788188451 21.11° C 65% 100.8 hPa - - - -
1788188385 22.22° C 56% 100.8 hPa - - - -
1788188319 22.78° C 51% 100.8 hPa - - - -
1788188253 22.78° C 51% 100.8 hPa - - - -
1788188187 22.78° C 52% 100.8 hPa - - - -
1788188121 22.78° C 52% 100.8 hPa - - - -
1788188055 22.78° C 51% 100.8 hPa - - - -
1788187990 22.78° C 50% 100.8 hPa - - - -
1788187924 23.33° C 51% 100.8 hPa - - - -
1788187861 23.33° C 53% 100.8 hPa - - - -
1788187792 23.33° C 53% 100.8 hPa - - - -
1788187727 23.89° C 53% 100.8 hPa - - - -
1788187660 23.89° C 52% 100.8 hPa - - - -
1788187595 23.89° C 51% 100.8 hPa - - - -
1788187529 24.44° C 52% 100.7 hPa - - - -
1788187463 23.89° C 53% 100.7 hPa - - - -
1788187397 24.44° C 52% 100.8 hPa - - - -
1788187331 24.44° C 52% 100.8 hPa - - - -
1788187265 23.89° C 52% 100.8 hPa - - - -
1788187199 23.89° C 51% 100.8 hPa - - - -
1788187134 24.44° C 51% 100.8 hPa - - - -
1788187068 24.44° C 51% 100.8 hPa - - - -

* Rain since midnight (hover to see other rain measurements)
** Current wind speed in m/s (hover to see current wind gust speed)